Aeroporto :
LOGIN :

Iscrizione | Disclaimer

   EN    FR    IT 

 










Sommario :    VFR   VFR Marginale   IFR   IFR Intensivo   IFR Molto Intensivo
Visibilità : 
Base nubi : 
>= 8 km
>= 3000ft
5 / 8 km
1000 / 3000 ft
1500m / 5 km
500 / 1000 ft
800 / 1500m
200 / 500 ft
< 800m
< 200 ft
Simboli :   Temporali  Nebbia  Neve Forte  Precipitazioni Forti  Vento > 20 kt
SIGMETs :   Varie  Temporali  Ghiacco  Turbolenza  Onda orograficha  Ceneri Vulcaniche






- Altitudine del aeroporto : 19 ft
- Codice IATA : LCY


EGLC - London City

ULTIMO METAR :
  • 300920Z AUTO 25011KT 9999 NCD 15/10 Q1009

METARs OBSOLETI :
  • 300850Z AUTO 26005KT 220V310 9999 NCD 13/10 Q1009
  • 300820Z 24003KT 180V300 9999 SCT003 11/10 Q1009
  • 300750Z AUTO 23004KT 200V260 5000 BR OVC001 10/09 Q1009
  • 300720Z AUTO 22006G17KT 190V260 3000 BR OVC001 09/09 Q1009
  • 300650Z AUTO 23007KT 190V310 2500 R27/1400N BR OVC001 09/09 Q1009

TAF TAF EGLC
Valido dal 30 a 09 ore il 30 a 18 ore UTC


300800Z 3009/3018 22009KT 7000 SCT045
BECMG 3009/3012 9999
PROB30 3009/3010 2000 BR BKN001
BECMG 3014/3017 21015G28KT 8000 -RA
PROB30
TEMPO 3015/3018 3500 +SHRA BKN014 BKN035CB
ATIS : +44 20 7646 0224



MetMap, La meteo Aeronautica in un colpo d'occhio ! - Copyright ORBIFLY Dicembre 2007 - Disclaimer

ORBIFLY MET'MAP TEAM :

Programmazione e sviluppo : Alexandra Zaïnal
Concezione : Baudouin d'Aumeries
Supporto tecnico e logistico : Manuel Goepfert
Aiuto : Marc-Olivier Méhu
Aiuto per la traduzione : Arnaldo La Scala




FONTI E CREDITI :

   NOAA